9G5AR-1 messages


fromtotime message
WXBOT 9G5AR-1 05/15 06:35:53z Reply DGAA 150600Z 30004KT 9999 FEW030CB 26/24 Q1011 NOSIG{JD
WXBOT 9G5AR-1 05/15 06:34:54z Reply DGAA 150600Z 30004KT 9999 FEW030CB 26/24 Q1011 NOSIG{JC
WXBOT 9G5AR-1 04/20 18:28:45z Reply DGAA 201800Z 20011KT 9999 FEW030CB 29/25 Q1010 NOSIG{LX
WXBOT 9G5AR-1 04/20 17:02:36z Reply DGAA 201600Z 18012KT 9999 FEW030CB 31/24 Q1009 NOSIG{LW
IZ1JPS 9G5AR-1 04/17 19:23:19z Reply 73 via NO-84{56
KM6LYW-9 9G5AR-1 04/17 07:33:54z Reply It's almost Twenty-Five to One (0:33PDT) (time){41
WXBOT 9G5AR-1 04/17 07:28:48z Reply DGAA 170300Z 27004KT CAVOK 27/25 Q1009 NOSIG{BK
9G5AR-1 DL6MHT 04/15 14:32:50z Send another Did you get this via Sat ?{21
9G5AR-1 DL7ORE 04/15 14:31:45z Send another Did you get this via Sat ?{20
9G5AR-1 PE1NTN 04/15 14:29:26z Send another Did you get this via Sat ?{19
9G5AR-1 WXBOT 04/15 14:27:16z Send another AA:TNX, received.
WXBOT 9G5AR-1 04/15 14:27:11z Reply DGAA 151400Z 12006KT 090V170 9999 FEW032 30/24 Q1010 NOSIG{UH
N1RCN 9G5AR-1 04/15 14:23:47z Reply Received it from somewhere! 73
KM6LYW-9 9G5AR-1 04/15 14:13:17z Reply It's around Ten past Seven (7:11PDT) (time){10
9G5AR-1 N1RCN 04/15 14:12:45z Send another Did you get this via Sat ?{18
9G5AR-1 KM6LYW-9 04/15 14:11:43z Send another time{5
KM6LYW-9 9G5AR-1 04/15 14:11:11z Reply It's exactly Ten past Seven (7:10PDT) (time){9
KM6LYW-9 9G5AR-1 04/15 14:11:10z Reply It's almost Ten past Seven (7:09PDT) (time){8
KM6LYW-9 9G5AR-1 04/15 14:10:13z Reply It's almost Ten past Seven (7:08PDT) (time){7
WXBOT 9G5AR-1 04/15 14:09:44z Reply DGAA 151300Z 13005KT 9999 FEW032 31/24 Q1010 NOSIG{UG
KM6LYW-9 9G5AR-1 04/15 14:09:11z Reply It's around Five past Seven (7:07PDT) (time){6
WXBOT 9G5AR-1 04/15 14:08:47z Reply DGAA 151300Z 13005KT 9999 FEW032 31/24 Q1010 NOSIG{UF
WXBOT 9G5AR-1 04/15 14:07:46z Reply DGAA 151300Z 13005KT 9999 FEW032 31/24 Q1010 NOSIG{UE
WXBOT 9G5AR-1 04/15 14:06:50z Reply DGAA 151300Z 13005KT 9999 FEW032 31/24 Q1010 NOSIG{UD
WXBOT 9G5AR-1 04/15 14:05:49z Reply DGAA 151300Z 13005KT 9999 FEW032 31/24 Q1010 NOSIG{UC
WXBOT 9G5AR-1 04/15 13:35:42z Reply DGAA 151300Z 13005KT 9999 FEW032 31/24 Q1010 NOSIG{TO
WXBOT 9G5AR-1 04/15 12:04:04z Reply DGAA 151000Z 24003KT 190V340 9999 FEW016 SCT019 29/25 Q1012 NOSIG{TL
WXBOT 9G5AR-1 04/15 11:27:40z Reply DGAA 151000Z 24003KT 190V340 9999 FEW016 SCT019 29/25 Q1012 NOSIG{TK
WXBOT 9G5AR-1 04/15 11:07:56z Reply DGAA 151000Z 24003KT 190V340 9999 FEW016 SCT019 29/25 Q1012 NOSIG{TJ
9G5AR-1 EO6PWE 04/15 09:40:29z Send another Did you get this via Sat ?{16
9G5AR-1 EA1EOL-6 04/15 09:40:28z Send another Did you get this via Sat ?{15
9G5AR-1 JA3FWT 04/15 08:27:40z Send another Did you get this via Sat ?{14
9G5AR-1 JA0CAW 04/15 08:27:39z Send another Did you get this via Sat ?{13
9G5AR-1 JDM 04/15 08:18:09z Send another Pls confirm if received via Sat.{12
WXBOT 9G5AR-1 04/15 07:39:06z Reply DGAA 150700Z 27008KT 8000 FEW011 24/23 Q1012 NOSIG{TA
WXBOT 9G5AR-1 04/14 21:26:14z Reply DGAA 142100Z 19006KT 8000 -TSRA FEW030CB 24/23 Q1012 NOSIG{SN
WXBOT 9G5AR-1 04/14 20:39:57z Reply DGAA 142000Z 06004KT 8000 -TSRA FEW027CB 23/23 Q1013 NOSIG{SM
WXBOT 9G5AR-1 04/14 14:11:29z Reply DGAA 141400Z 18016KT 9999 TS FEW030CB 31/25 Q1009 NOSIG{RL
9G5AR-1 WXBOT 04/14 14:11:22z Send another metar{11
WXBOT 9G5AR-1 04/14 13:19:15z Reply DGAA 141300Z 18013KT 9999 FEW030CB 31/24 Q1010 NOSIG{RK
WXBOT 9G5AR-1 04/14 12:36:46z Reply DGAA 141100Z 25008KT 210V290 9999 FEW039 33/24 Q1011 NOSIG{RJ
WXBOT 9G5AR-1 04/14 11:15:52z Reply DGAA 141100Z 25008KT 210V290 9999 FEW039 33/24 Q1011 NOSIG{RI
KM6LYW-9 9G5AR-1 04/14 11:05:00z Reply Unable to find you (send beacon?){5
9G5AR-1 KM6LYW-9 04/14 11:04:28z Send another loc{9
KM6LYW-9 9G5AR-1 04/14 11:00:53z Reply Unable to find you (send beacon?){4
9G5AR-1 KM6LYW-9 04/14 11:00:52z Send another weath{8
KM6LYW-9 9G5AR-1 04/14 10:59:16z Reply Don't Worry, Be Happy.
KM6LYW-9 9G5AR-1 04/14 10:58:57z Reply usage: time, fortune, loc, weath, -emailaddr emailbody, -#(resend){3
9G5AR-1 KM6LYW-9 04/14 10:58:57z Send another very_{7
9G5AR-1 KM6LYW-9 04/14 10:57:42z Send another fortune{6
KM6LYW-9 9G5AR-1 04/14 10:53:57z Reply It's almost Five to Four (3:53PDT) (time){1
WXBOT 9G5AR-1 04/14 10:48:35z Reply 1in.{RH
WXBOT 9G5AR-1 04/14 10:48:30z Reply EW8420 50,wind:141@17 g33,1016.6mbar,rh:45%,rain:1h:0.00in.,24h:0.0{RG
9G5AR-1 WXBOT 04/14 10:48:22z Send another cwop detail{4
WXBOT 9G5AR-1 04/14 10:45:43z Reply 1in.{RF
WXBOT 9G5AR-1 04/14 10:45:38z Reply EW8420 50,wind:141@17 g33,1016.6mbar,rh:45%,rain:1h:0.00in.,24h:0.0{RE
9G5AR-1 WXBOT 04/14 10:45:31z Send another cwop{3
WXBOT 9G5AR-1 04/14 10:42:22z Reply 1in.{RD
WXBOT 9G5AR-1 04/14 10:42:16z Reply EW8420 50,wind:141@17 g33,1016.6mbar,rh:45%,rain:1h:0.00in.,24h:0.0{RC
9G5AR-1 WXBOT 04/14 10:42:09z Send another cwop{2
9G5AR-1 9G5AR-7 04/13 13:42:23z Send another why is digi not working?{SW}
9G5AR-1 9G5AR-1 04/05 17:28:20z Send another BITS.11111111,Battery State Tracking
9G5AR-1 9G5AR-1 04/05 17:28:20z Send another EQNS.0,1,0,0,1,0,0,1,0,0,1,0,0,1,0
9G5AR-1 9G5AR-1 04/05 17:28:20z Send another UNIT.Percent,Charge/On/Off,Sats/On/Off,N/A,N/A,On,Yes,On,N/A,N/A,N/A,N/A,N/A
9G5AR-1 9G5AR-1 04/05 17:28:20z Send another PARM.Battery,Charging/AC,GPS+Sat,A4,A5,A/C,Charging,GPS,B4,B5,B6,B7,B8
9G5AR-1 9G5AR-10 03/29 16:38:13z Send another test @ 16:40{29